sensor_id;sensor_type;location;lat;lon;timestamp;temperature;humidity
18317;DHT22;9284;52.298;21.164;2024-02-26T00:01:42;4.00;1.00
18317;DHT22;9284;52.298;21.164;2024-02-26T00:04:12;4.00;1.00
18317;DHT22;9284;52.298;21.164;2024-02-26T00:06:41;3.90;1.00
18317;DHT22;9284;52.298;21.164;2024-02-26T00:09:10;3.90;1.00
18317;DHT22;9284;52.298;21.164;2024-02-26T00:11:38;3.90;1.00
18317;DHT22;9284;52.298;21.164;2024-02-26T00:14:07;3.90;1.00
18317;DHT22;9284;52.298;21.164;2024-02-26T00:16:35;3.90;1.00
18317;DHT22;9284;52.298;21.164;2024-02-26T00:19:03;3.90;1.00
18317;DHT22;9284;52.298;21.164;2024-02-26T00:21:33;3.90;1.00
18317;DHT22;9284;52.298;21.164;2024-02-26T00:24:01;3.80;1.00
18317;DHT22;9284;52.298;21.164;2024-02-26T00:26:30;3.80;1.00
18317;DHT22;9284;52.298;21.164;2024-02-26T00:28:58;3.90;1.00
18317;DHT22;9284;52.298;21.164;2024-02-26T00:31:26;3.90;1.00
18317;DHT22;9284;52.298;21.164;2024-02-26T00:33:55;3.90;1.00
18317;DHT22;9284;52.298;21.164;2024-02-26T00:36:23;3.90;1.00
18317;DHT22;9284;52.298;21.164;2024-02-26T00:38:53;4.10;1.00
18317;DHT22;9284;52.298;21.164;2024-02-26T00:41:22;4.00;1.00
18317;DHT22;9284;52.298;21.164;2024-02-26T00:43:50;4.10;1.00
18317;DHT22;9284;52.298;21.164;2024-02-26T00:46:18;4.00;1.00
18317;DHT22;9284;52.298;21.164;2024-02-26T00:48:47;4.00;1.00
18317;DHT22;9284;52.298;21.164;2024-02-26T00:51:15;4.00;1.00
18317;DHT22;9284;52.298;21.164;2024-02-26T00:53:44;4.10;1.00
18317;DHT22;9284;52.298;21.164;2024-02-26T00:56:14;3.90;1.00
18317;DHT22;9284;52.298;21.164;2024-02-26T00:58:42;3.90;1.00
18317;DHT22;9284;52.298;21.164;2024-02-26T01:01:10;3.80;1.00
18317;DHT22;9284;52.298;21.164;2024-02-26T01:03:39;3.80;1.00
18317;DHT22;9284;52.298;21.164;2024-02-26T01:06:07;4.00;1.00
18317;DHT22;9284;52.298;21.164;2024-02-26T01:08:36;4.00;1.00
18317;DHT22;9284;52.298;21.164;2024-02-26T01:11:06;3.90;1.00
18317;DHT22;9284;52.298;21.164;2024-02-26T01:13:36;3.90;1.00
18317;DHT22;9284;52.298;21.164;2024-02-26T01:16:05;3.80;1.00
18317;DHT22;9284;52.298;21.164;2024-02-26T01:18:34;3.70;1.00
18317;DHT22;9284;52.298;21.164;2024-02-26T01:21:02;3.70;1.00
18317;DHT22;9284;52.298;21.164;2024-02-26T01:23:34;3.70;1.00
18317;DHT22;9284;52.298;21.164;2024-02-26T01:26:02;3.60;1.00
18317;DHT22;9284;52.298;21.164;2024-02-26T01:28:32;3.60;1.00
18317;DHT22;9284;52.298;21.164;2024-02-26T01:31:01;3.50;1.00
18317;DHT22;9284;52.298;21.164;2024-02-26T01:33:32;3.50;1.00
18317;DHT22;9284;52.298;21.164;2024-02-26T01:36:01;3.40;1.00
18317;DHT22;9284;52.298;21.164;2024-02-26T01:38:29;3.40;1.00
18317;DHT22;9284;52.298;21.164;2024-02-26T01:40:57;3.30;1.00
18317;DHT22;9284;52.298;21.164;2024-02-26T01:43:26;3.30;1.00
18317;DHT22;9284;52.298;21.164;2024-02-26T01:45:55;3.30;1.00
18317;DHT22;9284;52.298;21.164;2024-02-26T01:48:24;3.20;1.00
18317;DHT22;9284;52.298;21.164;2024-02-26T01:50:54;3.20;1.00
18317;DHT22;9284;52.298;21.164;2024-02-26T01:53:22;3.20;1.00
18317;DHT22;9284;52.298;21.164;2024-02-26T01:55:54;3.10;1.00
18317;DHT22;9284;52.298;21.164;2024-02-26T01:58:23;3.10;1.00
18317;DHT22;9284;52.298;21.164;2024-02-26T02:00:51;3.10;1.00
18317;DHT22;9284;52.298;21.164;2024-02-26T02:03:20;3.10;1.00
18317;DHT22;9284;52.298;21.164;2024-02-26T02:05:50;3.10;1.00
18317;DHT22;9284;52.298;21.164;2024-02-26T02:08:19;3.00;1.00
18317;DHT22;9284;52.298;21.164;2024-02-26T02:10:47;3.00;1.00
18317;DHT22;9284;52.298;21.164;2024-02-26T02:13:16;3.10;1.00
18317;DHT22;9284;52.298;21.164;2024-02-26T02:15:45;3.10;1.00
18317;DHT22;9284;52.298;21.164;2024-02-26T02:18:13;3.00;7.10
18317;DHT22;9284;52.298;21.164;2024-02-26T02:20:43;3.00;10.60
18317;DHT22;9284;52.298;21.164;2024-02-26T02:23:11;3.10;14.40
18317;DHT22;9284;52.298;21.164;2024-02-26T02:25:41;3.10;16.90
18317;DHT22;9284;52.298;21.164;2024-02-26T02:28:09;3.00;16.60
18317;DHT22;9284;52.298;21.164;2024-02-26T02:30:38;3.10;14.50
18317;DHT22;9284;52.298;21.164;2024-02-26T02:33:07;3.00;13.90
18317;DHT22;9284;52.298;21.164;2024-02-26T02:35:36;2.90;11.40
18317;DHT22;9284;52.298;21.164;2024-02-26T02:38:05;2.90;14.00
18317;DHT22;9284;52.298;21.164;2024-02-26T02:40:34;2.90;17.50
18317;DHT22;9284;52.298;21.164;2024-02-26T02:43:02;2.90;36.70
18317;DHT22;9284;52.298;21.164;2024-02-26T02:45:31;2.90;36.70
18317;DHT22;9284;52.298;21.164;2024-02-26T02:47:59;2.90;31.90
18317;DHT22;9284;52.298;21.164;2024-02-26T02:50:28;2.90;31.70
18317;DHT22;9284;52.298;21.164;2024-02-26T02:52:56;2.80;29.90
18317;DHT22;9284;52.298;21.164;2024-02-26T02:55:27;2.90;49.50
18317;DHT22;9284;52.298;21.164;2024-02-26T02:57:56;3.00;56.00
18317;DHT22;9284;52.298;21.164;2024-02-26T03:00:24;2.90;53.50
18317;DHT22;9284;52.298;21.164;2024-02-26T03:02:52;3.00;65.80
18317;DHT22;9284;52.298;21.164;2024-02-26T03:05:21;3.00;72.50
18317;DHT22;9284;52.298;21.164;2024-02-26T03:07:49;3.10;82.10
18317;DHT22;9284;52.298;21.164;2024-02-26T03:10:18;3.00;83.30
18317;DHT22;9284;52.298;21.164;2024-02-26T03:12:48;3.00;80.60
18317;DHT22;9284;52.298;21.164;2024-02-26T03:15:16;3.00;83.70
18317;DHT22;9284;52.298;21.164;2024-02-26T03:17:45;2.90;84.60
18317;DHT22;9284;52.298;21.164;2024-02-26T03:20:13;2.90;83.30
18317;DHT22;9284;52.298;21.164;2024-02-26T03:22:42;2.90;90.50
18317;DHT22;9284;52.298;21.164;2024-02-26T03:25:10;3.00;90.60
18317;DHT22;9284;52.298;21.164;2024-02-26T03:27:38;2.90;90.60
18317;DHT22;9284;52.298;21.164;2024-02-26T03:30:10;2.80;86.60
18317;DHT22;9284;52.298;21.164;2024-02-26T03:32:38;2.90;90.00
18317;DHT22;9284;52.298;21.164;2024-02-26T03:35:07;2.80;81.80
18317;DHT22;9284;52.298;21.164;2024-02-26T03:37:36;2.80;73.20
18317;DHT22;9284;52.298;21.164;2024-02-26T03:40:05;2.70;67.10
18317;DHT22;9284;52.298;21.164;2024-02-26T03:42:34;2.80;66.90
18317;DHT22;9284;52.298;21.164;2024-02-26T03:45:02;2.80;72.20
18317;DHT22;9284;52.298;21.164;2024-02-26T03:47:32;2.80;72.20
18317;DHT22;9284;52.298;21.164;2024-02-26T03:50:01;2.70;74.60
18317;DHT22;9284;52.298;21.164;2024-02-26T03:52:31;2.90;83.00
18317;DHT22;9284;52.298;21.164;2024-02-26T03:54:59;2.80;82.70
18317;DHT22;9284;52.298;21.164;2024-02-26T03:57:27;2.90;87.00
18317;DHT22;9284;52.298;21.164;2024-02-26T03:59:56;2.90;92.00
18317;DHT22;9284;52.298;21.164;2024-02-26T04:02:24;2.90;91.20
18317;DHT22;9284;52.298;21.164;2024-02-26T04:04:55;2.80;87.90
18317;DHT22;9284;52.298;21.164;2024-02-26T04:07:23;2.70;85.10
18317;DHT22;9284;52.298;21.164;2024-02-26T04:09:52;2.80;85.60
18317;DHT22;9284;52.298;21.164;2024-02-26T04:12:20;2.70;87.20
18317;DHT22;9284;52.298;21.164;2024-02-26T04:14:48;2.60;90.20
18317;DHT22;9284;52.298;21.164;2024-02-26T04:17:17;2.60;90.20
18317;DHT22;9284;52.298;21.164;2024-02-26T04:19:45;2.60;90.10
18317;DHT22;9284;52.298;21.164;2024-02-26T04:22:15;2.50;90.00
18317;DHT22;9284;52.298;21.164;2024-02-26T04:24:43;2.60;91.40
18317;DHT22;9284;52.298;21.164;2024-02-26T04:27:11;2.60;92.50
18317;DHT22;9284;52.298;21.164;2024-02-26T04:29:40;2.60;94.20
18317;DHT22;9284;52.298;21.164;2024-02-26T04:32:08;2.60;95.30
18317;DHT22;9284;52.298;21.164;2024-02-26T04:34:36;2.60;95.90
18317;DHT22;9284;52.298;21.164;2024-02-26T04:37:05;2.60;97.80
18317;DHT22;9284;52.298;21.164;2024-02-26T04:39:35;2.60;99.80
18317;DHT22;9284;52.298;21.164;2024-02-26T04:42:03;2.60;99.80
18317;DHT22;9284;52.298;21.164;2024-02-26T04:44:32;2.60;99.90
18317;DHT22;9284;52.298;21.164;2024-02-26T04:47:00;2.60;99.90
18317;DHT22;9284;52.298;21.164;2024-02-26T04:49:29;2.50;99.90
18317;DHT22;9284;52.298;21.164;2024-02-26T04:51:58;2.50;99.90
18317;DHT22;9284;52.298;21.164;2024-02-26T04:54:26;2.50;99.90
18317;DHT22;9284;52.298;21.164;2024-02-26T04:56:56;2.50;99.90
18317;DHT22;9284;52.298;21.164;2024-02-26T04:59:24;2.50;99.90
18317;DHT22;9284;52.298;21.164;2024-02-26T05:01:52;2.40;99.90
18317;DHT22;9284;52.298;21.164;2024-02-26T05:04:21;2.40;99.40
18317;DHT22;9284;52.298;21.164;2024-02-26T05:06:49;2.40;98.80
18317;DHT22;9284;52.298;21.164;2024-02-26T05:09:18;2.40;99.00
18317;DHT22;9284;52.298;21.164;2024-02-26T05:11:46;2.30;98.90
18317;DHT22;9284;52.298;21.164;2024-02-26T05:14:16;2.30;99.70
18317;DHT22;9284;52.298;21.164;2024-02-26T05:16:45;2.30;99.60
18317;DHT22;9284;52.298;21.164;2024-02-26T05:19:13;2.30;99.90
18317;DHT22;9284;52.298;21.164;2024-02-26T05:21:42;2.30;99.90
18317;DHT22;9284;52.298;21.164;2024-02-26T05:24:11;2.30;99.90
18317;DHT22;9284;52.298;21.164;2024-02-26T05:26:39;2.20;99.90
18317;DHT22;9284;52.298;21.164;2024-02-26T05:29:08;2.30;99.90
18317;DHT22;9284;52.298;21.164;2024-02-26T05:31:38;2.40;99.90
18317;DHT22;9284;52.298;21.164;2024-02-26T05:34:06;2.40;99.90
18317;DHT22;9284;52.298;21.164;2024-02-26T05:36:35;2.50;99.90
18317;DHT22;9284;52.298;21.164;2024-02-26T05:39:03;2.70;99.90
18317;DHT22;9284;52.298;21.164;2024-02-26T05:41:31;2.60;99.90
18317;DHT22;9284;52.298;21.164;2024-02-26T05:44:00;2.70;99.90
18317;DHT22;9284;52.298;21.164;2024-02-26T05:46:28;2.70;99.90
18317;DHT22;9284;52.298;21.164;2024-02-26T05:48:58;2.80;99.90
18317;DHT22;9284;52.298;21.164;2024-02-26T05:51:26;2.90;99.90
18317;DHT22;9284;52.298;21.164;2024-02-26T05:53:55;3.00;99.90
18317;DHT22;9284;52.298;21.164;2024-02-26T05:56:23;3.00;99.90
18317;DHT22;9284;52.298;21.164;2024-02-26T05:58:51;3.20;99.90
18317;DHT22;9284;52.298;21.164;2024-02-26T06:01:21;3.20;99.90
18317;DHT22;9284;52.298;21.164;2024-02-26T06:03:50;3.30;99.90
18317;DHT22;9284;52.298;21.164;2024-02-26T06:06:19;3.30;99.90
18317;DHT22;9284;52.298;21.164;2024-02-26T06:08:50;3.30;99.90
18317;DHT22;9284;52.298;21.164;2024-02-26T06:11:18;3.30;99.90
18317;DHT22;9284;52.298;21.164;2024-02-26T06:13:47;3.30;99.90
18317;DHT22;9284;52.298;21.164;2024-02-26T06:16:15;3.30;99.90
18317;DHT22;9284;52.298;21.164;2024-02-26T06:18:44;3.30;99.90
18317;DHT22;9284;52.298;21.164;2024-02-26T06:21:12;3.40;99.90
18317;DHT22;9284;52.298;21.164;2024-02-26T06:23:42;3.50;99.90
18317;DHT22;9284;52.298;21.164;2024-02-26T06:26:10;3.50;99.90
18317;DHT22;9284;52.298;21.164;2024-02-26T06:28:39;3.60;99.90
18317;DHT22;9284;52.298;21.164;2024-02-26T06:31:08;3.70;99.90
18317;DHT22;9284;52.298;21.164;2024-02-26T06:33:36;3.80;99.90
18317;DHT22;9284;52.298;21.164;2024-02-26T06:36:06;3.80;99.90
18317;DHT22;9284;52.298;21.164;2024-02-26T06:38:34;3.80;99.90
18317;DHT22;9284;52.298;21.164;2024-02-26T06:41:04;4.00;99.90
18317;DHT22;9284;52.298;21.164;2024-02-26T06:43:33;4.00;99.90
18317;DHT22;9284;52.298;21.164;2024-02-26T06:46:01;4.00;99.90
18317;DHT22;9284;52.298;21.164;2024-02-26T06:48:30;4.00;99.90
18317;DHT22;9284;52.298;21.164;2024-02-26T06:50:58;4.10;99.90
18317;DHT22;9284;52.298;21.164;2024-02-26T06:53:27;4.20;99.90
18317;DHT22;9284;52.298;21.164;2024-02-26T06:55:55;4.40;99.90
18317;DHT22;9284;52.298;21.164;2024-02-26T06:58:25;4.50;99.90
18317;DHT22;9284;52.298;21.164;2024-02-26T07:00:53;4.60;99.90
18317;DHT22;9284;52.298;21.164;2024-02-26T07:03:21;4.80;99.90
18317;DHT22;9284;52.298;21.164;2024-02-26T07:05:52;4.80;97.10
18317;DHT22;9284;52.298;21.164;2024-02-26T07:08:20;5.10;80.70
18317;DHT22;9284;52.298;21.164;2024-02-26T07:10:51;5.30;14.00
18317;DHT22;9284;52.298;21.164;2024-02-26T07:13:20;5.90;1.00
18317;DHT22;9284;52.298;21.164;2024-02-26T07:15:49;6.50;1.00
18317;DHT22;9284;52.298;21.164;2024-02-26T07:18:18;7.10;99.90
18317;DHT22;9284;52.298;21.164;2024-02-26T07:20:46;7.80;1.00
18317;DHT22;9284;52.298;21.164;2024-02-26T07:23:15;8.30;1.00
18317;DHT22;9284;52.298;21.164;2024-02-26T07:25:43;8.80;1.00
18317;DHT22;9284;52.298;21.164;2024-02-26T07:28:14;9.40;99.90
18317;DHT22;9284;52.298;21.164;2024-02-26T07:30:43;9.40;1.00
18317;DHT22;9284;52.298;21.164;2024-02-26T07:33:13;9.90;88.50
18317;DHT22;9284;52.298;21.164;2024-02-26T07:35:41;9.80;1.00
18317;DHT22;9284;52.298;21.164;2024-02-26T07:38:10;9.90;1.00
18317;DHT22;9284;52.298;21.164;2024-02-26T07:40:57;9.90;1.00
18317;DHT22;9284;52.298;21.164;2024-02-26T07:43:29;10.40;99.00
18317;DHT22;9284;52.298;21.164;2024-02-26T07:45:58;10.80;99.90
18317;DHT22;9284;52.298;21.164;2024-02-26T07:48:28;11.60;1.00
18317;DHT22;9284;52.298;21.164;2024-02-26T07:50:57;11.90;1.00
18317;DHT22;9284;52.298;21.164;2024-02-26T07:53:27;12.10;99.90
18317;DHT22;9284;52.298;21.164;2024-02-26T07:55:55;11.70;1.00
18317;DHT22;9284;52.298;21.164;2024-02-26T07:58:24;11.50;1.00
18317;DHT22;9284;52.298;21.164;2024-02-26T08:00:52;11.40;99.90
18317;DHT22;9284;52.298;21.164;2024-02-26T08:03:21;11.10;99.90
18317;DHT22;9284;52.298;21.164;2024-02-26T08:05:51;10.80;99.90
18317;DHT22;9284;52.298;21.164;2024-02-26T08:08:20;10.60;1.00
18317;DHT22;9284;52.298;21.164;2024-02-26T08:10:48;10.60;1.00
18317;DHT22;9284;52.298;21.164;2024-02-26T08:13:17;10.70;1.00
18317;DHT22;9284;52.298;21.164;2024-02-26T08:15:45;10.90;1.00
18317;DHT22;9284;52.298;21.164;2024-02-26T08:18:14;10.70;1.00
18317;DHT22;9284;52.298;21.164;2024-02-26T08:20:43;10.90;1.00
18317;DHT22;9284;52.298;21.164;2024-02-26T08:23:13;11.00;99.90
18317;DHT22;9284;52.298;21.164;2024-02-26T08:25:41;11.00;1.00
18317;DHT22;9284;52.298;21.164;2024-02-26T08:28:09;11.00;1.00
18317;DHT22;9284;52.298;21.164;2024-02-26T08:30:40;11.10;99.90
18317;DHT22;9284;52.298;21.164;2024-02-26T08:33:08;11.10;99.90
18317;DHT22;9284;52.298;21.164;2024-02-26T08:35:37;11.10;1.00
18317;DHT22;9284;52.298;21.164;2024-02-26T08:38:05;11.00;1.00
18317;DHT22;9284;52.298;21.164;2024-02-26T08:40:35;11.10;1.00
18317;DHT22;9284;52.298;21.164;2024-02-26T08:43:04;11.20;1.00
18317;DHT22;9284;52.298;21.164;2024-02-26T08:45:32;11.30;1.00
18317;DHT22;9284;52.298;21.164;2024-02-26T08:48:01;11.30;6.00
18317;DHT22;9284;52.298;21.164;2024-02-26T08:50:29;11.40;99.90
18317;DHT22;9284;52.298;21.164;2024-02-26T08:52:58;11.40;99.90
18317;DHT22;9284;52.298;21.164;2024-02-26T08:55:32;11.40;99.90
18317;DHT22;9284;52.298;21.164;2024-02-26T08:58:02;11.40;44.30
18317;DHT22;9284;52.298;21.164;2024-02-26T09:00:30;11.50;97.70
18317;DHT22;9284;52.298;21.164;2024-02-26T09:02:59;11.60;1.00
18317;DHT22;9284;52.298;21.164;2024-02-26T09:05:31;11.70;1.00
18317;DHT22;9284;52.298;21.164;2024-02-26T09:08:00;12.00;1.00
18317;DHT22;9284;52.298;21.164;2024-02-26T09:10:28;12.00;1.00
18317;DHT22;9284;52.298;21.164;2024-02-26T09:12:56;12.00;99.90
18317;DHT22;9284;52.298;21.164;2024-02-26T09:15:26;11.80;1.00
18317;DHT22;9284;52.298;21.164;2024-02-26T09:17:55;11.80;1.00
18317;DHT22;9284;52.298;21.164;2024-02-26T09:20:23;11.80;1.00
18317;DHT22;9284;52.298;21.164;2024-02-26T09:22:52;11.70;1.00
18317;DHT22;9284;52.298;21.164;2024-02-26T09:25:20;11.70;1.00
18317;DHT22;9284;52.298;21.164;2024-02-26T09:27:49;11.70;35.80
18317;DHT22;9284;52.298;21.164;2024-02-26T09:30:17;11.80;1.00
18317;DHT22;9284;52.298;21.164;2024-02-26T09:32:47;11.80;1.00
18317;DHT22;9284;52.298;21.164;2024-02-26T09:35:16;11.70;1.00
18317;DHT22;9284;52.298;21.164;2024-02-26T09:37:44;11.70;1.00
18317;DHT22;9284;52.298;21.164;2024-02-26T09:40:13;11.80;1.00
18317;DHT22;9284;52.298;21.164;2024-02-26T09:42:44;11.90;1.00
18317;DHT22;9284;52.298;21.164;2024-02-26T09:45:18;11.80;99.90
18317;DHT22;9284;52.298;21.164;2024-02-26T09:47:49;11.70;99.90
18317;DHT22;9284;52.298;21.164;2024-02-26T09:50:18;11.70;99.90
18317;DHT22;9284;52.298;21.164;2024-02-26T09:52:51;11.80;99.90
18317;DHT22;9284;52.298;21.164;2024-02-26T09:55:19;11.50;99.90
18317;DHT22;9284;52.298;21.164;2024-02-26T09:57:48;11.40;1.00
18317;DHT22;9284;52.298;21.164;2024-02-26T10:00:21;11.50;1.00
18317;DHT22;9284;52.298;21.164;2024-02-26T10:02:51;11.70;1.00
18317;DHT22;9284;52.298;21.164;2024-02-26T10:05:20;11.60;1.00
18317;DHT22;9284;52.298;21.164;2024-02-26T10:07:49;11.70;1.00
18317;DHT22;9284;52.298;21.164;2024-02-26T10:10:18;11.60;1.00
18317;DHT22;9284;52.298;21.164;2024-02-26T10:12:47;11.60;1.00
18317;DHT22;9284;52.298;21.164;2024-02-26T10:15:15;11.60;1.00
18317;DHT22;9284;52.298;21.164;2024-02-26T10:17:46;11.60;1.00
18317;DHT22;9284;52.298;21.164;2024-02-26T10:20:16;11.70;1.00
18317;DHT22;9284;52.298;21.164;2024-02-26T10:22:46;11.60;1.00
18317;DHT22;9284;52.298;21.164;2024-02-26T10:25:15;11.70;99.90
18317;DHT22;9284;52.298;21.164;2024-02-26T10:27:43;11.60;1.00
18317;DHT22;9284;52.298;21.164;2024-02-26T10:30:19;11.60;1.00
18317;DHT22;9284;52.298;21.164;2024-02-26T10:32:49;11.40;1.00
18317;DHT22;9284;52.298;21.164;2024-02-26T10:35:19;11.30;1.00
18317;DHT22;9284;52.298;21.164;2024-02-26T10:37:49;11.30;1.00
18317;DHT22;9284;52.298;21.164;2024-02-26T10:40:18;11.40;1.00
18317;DHT22;9284;52.298;21.164;2024-02-26T10:42:46;11.30;1.00
18317;DHT22;9284;52.298;21.164;2024-02-26T10:45:15;11.40;1.00
18317;DHT22;9284;52.298;21.164;2024-02-26T10:47:43;11.50;1.00
18317;DHT22;9284;52.298;21.164;2024-02-26T10:50:13;11.70;99.90
18317;DHT22;9284;52.298;21.164;2024-02-26T10:52:43;11.80;99.90
18317;DHT22;9284;52.298;21.164;2024-02-26T10:55:15;11.90;99.90
18317;DHT22;9284;52.298;21.164;2024-02-26T10:57:46;12.20;1.00
18317;DHT22;9284;52.298;21.164;2024-02-26T11:00:16;12.30;1.00
18317;DHT22;9284;52.298;21.164;2024-02-26T11:02:45;12.30;1.00
18317;DHT22;9284;52.298;21.164;2024-02-26T11:05:14;12.40;1.00
18317;DHT22;9284;52.298;21.164;2024-02-26T11:07:44;12.60;1.00
18317;DHT22;9284;52.298;21.164;2024-02-26T11:10:15;12.50;99.90
18317;DHT22;9284;52.298;21.164;2024-02-26T11:12:45;12.60;99.90
18317;DHT22;9284;52.298;21.164;2024-02-26T11:15:15;12.70;99.90
18317;DHT22;9284;52.298;21.164;2024-02-26T11:17:46;12.90;99.90
18317;DHT22;9284;52.298;21.164;2024-02-26T11:20:16;13.00;1.00
18317;DHT22;9284;52.298;21.164;2024-02-26T11:22:47;13.40;1.00
18317;DHT22;9284;52.298;21.164;2024-02-26T11:25:15;14.00;1.00
18317;DHT22;9284;52.298;21.164;2024-02-26T11:27:49;14.30;99.90
18317;DHT22;9284;52.298;21.164;2024-02-26T11:30:19;14.30;99.90
18317;DHT22;9284;52.298;21.164;2024-02-26T11:32:47;14.30;99.90
18317;DHT22;9284;52.298;21.164;2024-02-26T11:35:18;14.30;99.90
18317;DHT22;9284;52.298;21.164;2024-02-26T11:37:56;14.50;99.90
18317;DHT22;9284;52.298;21.164;2024-02-26T11:40:25;14.80;1.00
18317;DHT22;9284;52.298;21.164;2024-02-26T11:42:54;14.60;1.00
18317;DHT22;9284;52.298;21.164;2024-02-26T11:45:47;14.80;1.00
18317;DHT22;9284;52.298;21.164;2024-02-26T11:48:22;15.20;1.00
18317;DHT22;9284;52.298;21.164;2024-02-26T11:50:51;15.30;1.00
18317;DHT22;9284;52.298;21.164;2024-02-26T11:53:22;14.90;1.00
18317;DHT22;9284;52.298;21.164;2024-02-26T11:56:12;14.70;1.00
18317;DHT22;9284;52.298;21.164;2024-02-26T11:58:40;14.20;1.00
18317;DHT22;9284;52.298;21.164;2024-02-26T12:01:39;13.70;1.00
18317;DHT22;9284;52.298;21.164;2024-02-26T12:04:11;13.80;1.20
18317;DHT22;9284;52.298;21.164;2024-02-26T12:06:45;13.70;79.50
18317;DHT22;9284;52.298;21.164;2024-02-26T12:09:30;13.80;81.50
18317;DHT22;9284;52.298;21.164;2024-02-26T12:12:00;13.90;30.90
18317;DHT22;9284;52.298;21.164;2024-02-26T12:14:29;14.00;53.00
18317;DHT22;9284;52.298;21.164;2024-02-26T12:16:58;14.10;26.50
18317;DHT22;9284;52.298;21.164;2024-02-26T12:19:27;14.10;1.00
18317;DHT22;9284;52.298;21.164;2024-02-26T12:21:56;14.20;1.00
18317;DHT22;9284;52.298;21.164;2024-02-26T12:24:25;14.20;1.00
18317;DHT22;9284;52.298;21.164;2024-02-26T12:26:54;14.30;1.00
18317;DHT22;9284;52.298;21.164;2024-02-26T12:29:23;14.30;1.00
18317;DHT22;9284;52.298;21.164;2024-02-26T12:31:51;14.50;1.00
18317;DHT22;9284;52.298;21.164;2024-02-26T12:34:20;14.50;1.00
18317;DHT22;9284;52.298;21.164;2024-02-26T12:36:49;14.60;1.00
18317;DHT22;9284;52.298;21.164;2024-02-26T12:39:18;14.60;1.00
18317;DHT22;9284;52.298;21.164;2024-02-26T12:41:49;14.60;1.00
18317;DHT22;9284;52.298;21.164;2024-02-26T12:44:18;14.60;1.00
18317;DHT22;9284;52.298;21.164;2024-02-26T12:46:46;14.60;1.00
18317;DHT22;9284;52.298;21.164;2024-02-26T12:49:15;14.60;1.00
18317;DHT22;9284;52.298;21.164;2024-02-26T12:51:45;14.50;1.00
18317;DHT22;9284;52.298;21.164;2024-02-26T12:54:14;14.50;1.00
18317;DHT22;9284;52.298;21.164;2024-02-26T12:56:42;14.70;1.00
18317;DHT22;9284;52.298;21.164;2024-02-26T12:59:12;14.50;1.00
18317;DHT22;9284;52.298;21.164;2024-02-26T13:01:41;14.40;1.00
18317;DHT22;9284;52.298;21.164;2024-02-26T13:04:09;14.20;1.00
18317;DHT22;9284;52.298;21.164;2024-02-26T13:06:38;14.00;1.00
18317;DHT22;9284;52.298;21.164;2024-02-26T13:09:06;14.00;1.00
18317;DHT22;9284;52.298;21.164;2024-02-26T13:11:37;14.00;1.00
18317;DHT22;9284;52.298;21.164;2024-02-26T13:14:07;14.10;1.00
18317;DHT22;9284;52.298;21.164;2024-02-26T13:16:37;14.00;1.00
18317;DHT22;9284;52.298;21.164;2024-02-26T13:19:09;14.00;1.00
18317;DHT22;9284;52.298;21.164;2024-02-26T13:21:37;14.00;1.00
18317;DHT22;9284;52.298;21.164;2024-02-26T13:24:06;14.10;1.00
18317;DHT22;9284;52.298;21.164;2024-02-26T13:26:35;14.10;1.00
18317;DHT22;9284;52.298;21.164;2024-02-26T13:29:03;14.10;1.00
18317;DHT22;9284;52.298;21.164;2024-02-26T13:31:39;14.00;1.00
18317;DHT22;9284;52.298;21.164;2024-02-26T13:34:11;14.00;1.00
18317;DHT22;9284;52.298;21.164;2024-02-26T13:36:39;14.00;1.00
18317;DHT22;9284;52.298;21.164;2024-02-26T13:39:08;14.00;1.00
18317;DHT22;9284;52.298;21.164;2024-02-26T13:41:40;14.00;1.00
18317;DHT22;9284;52.298;21.164;2024-02-26T13:44:10;13.90;1.00
18317;DHT22;9284;52.298;21.164;2024-02-26T13:46:40;13.90;1.00
18317;DHT22;9284;52.298;21.164;2024-02-26T13:49:09;13.90;1.00
18317;DHT22;9284;52.298;21.164;2024-02-26T13:51:38;13.90;1.00
18317;DHT22;9284;52.298;21.164;2024-02-26T13:54:07;13.90;1.00
18317;DHT22;9284;52.298;21.164;2024-02-26T13:56:36;13.80;1.00
18317;DHT22;9284;52.298;21.164;2024-02-26T13:59:05;13.80;1.00
18317;DHT22;9284;52.298;21.164;2024-02-26T14:01:33;13.70;1.00
18317;DHT22;9284;52.298;21.164;2024-02-26T14:04:04;13.70;1.00
18317;DHT22;9284;52.298;21.164;2024-02-26T14:06:33;13.80;1.00
18317;DHT22;9284;52.298;21.164;2024-02-26T14:09:01;13.80;1.00
18317;DHT22;9284;52.298;21.164;2024-02-26T14:11:31;13.80;1.00
18317;DHT22;9284;52.298;21.164;2024-02-26T14:13:59;13.90;1.00
18317;DHT22;9284;52.298;21.164;2024-02-26T14:16:28;14.00;1.00
18317;DHT22;9284;52.298;21.164;2024-02-26T14:18:58;14.00;1.00
18317;DHT22;9284;52.298;21.164;2024-02-26T14:21:28;14.00;1.00
18317;DHT22;9284;52.298;21.164;2024-02-26T14:23:57;14.00;1.00
18317;DHT22;9284;52.298;21.164;2024-02-26T14:26:26;13.90;1.00
18317;DHT22;9284;52.298;21.164;2024-02-26T14:28:55;13.80;1.00
18317;DHT22;9284;52.298;21.164;2024-02-26T14:31:23;13.80;1.00
18317;DHT22;9284;52.298;21.164;2024-02-26T14:33:52;13.70;1.00
18317;DHT22;9284;52.298;21.164;2024-02-26T14:36:21;13.60;1.00
18317;DHT22;9284;52.298;21.164;2024-02-26T14:38:51;13.60;1.00
18317;DHT22;9284;52.298;21.164;2024-02-26T14:41:20;13.50;1.00
18317;DHT22;9284;52.298;21.164;2024-02-26T14:43:48;13.50;1.00
18317;DHT22;9284;52.298;21.164;2024-02-26T14:46:16;13.40;1.00
18317;DHT22;9284;52.298;21.164;2024-02-26T14:48:45;13.40;1.00
18317;DHT22;9284;52.298;21.164;2024-02-26T14:51:14;13.30;1.00
18317;DHT22;9284;52.298;21.164;2024-02-26T14:53:42;13.30;1.00
18317;DHT22;9284;52.298;21.164;2024-02-26T14:56:12;13.30;1.00
18317;DHT22;9284;52.298;21.164;2024-02-26T14:58:40;13.20;1.00
18317;DHT22;9284;52.298;21.164;2024-02-26T15:01:09;13.20;1.00
18317;DHT22;9284;52.298;21.164;2024-02-26T15:03:37;13.20;9.90
18317;DHT22;9284;52.298;21.164;2024-02-26T15:06:06;13.10;9.00
18317;DHT22;9284;52.298;21.164;2024-02-26T15:08:34;13.10;94.50
18317;DHT22;9284;52.298;21.164;2024-02-26T15:11:03;13.10;86.50
18317;DHT22;9284;52.298;21.164;2024-02-26T15:13:34;13.00;99.90
18317;DHT22;9284;52.298;21.164;2024-02-26T15:16:02;13.00;99.90
18317;DHT22;9284;52.298;21.164;2024-02-26T15:18:31;12.90;99.90
18317;DHT22;9284;52.298;21.164;2024-02-26T15:21:00;12.80;99.90
18317;DHT22;9284;52.298;21.164;2024-02-26T15:23:30;12.70;99.90
18317;DHT22;9284;52.298;21.164;2024-02-26T15:25:58;12.60;99.90
18317;DHT22;9284;52.298;21.164;2024-02-26T15:28:28;12.60;99.90
18317;DHT22;9284;52.298;21.164;2024-02-26T15:30:58;12.50;99.90
18317;DHT22;9284;52.298;21.164;2024-02-26T15:33:27;12.40;99.90
18317;DHT22;9284;52.298;21.164;2024-02-26T15:35:55;12.30;1.00
18317;DHT22;9284;52.298;21.164;2024-02-26T15:38:24;12.30;1.00
18317;DHT22;9284;52.298;21.164;2024-02-26T15:40:52;12.10;1.00
18317;DHT22;9284;52.298;21.164;2024-02-26T15:43:20;12.00;1.00
18317;DHT22;9284;52.298;21.164;2024-02-26T15:45:49;11.90;1.00
18317;DHT22;9284;52.298;21.164;2024-02-26T15:48:19;11.80;1.00
18317;DHT22;9284;52.298;21.164;2024-02-26T15:50:47;11.70;99.90
18317;DHT22;9284;52.298;21.164;2024-02-26T15:53:17;11.60;99.90
18317;DHT22;9284;52.298;21.164;2024-02-26T15:55:45;11.60;99.90
18317;DHT22;9284;52.298;21.164;2024-02-26T15:58:14;11.60;99.90
18317;DHT22;9284;52.298;21.164;2024-02-26T16:00:42;11.60;99.90